Portada
METAR-TAF:

METAR-TAF

Aeropuertos :

Aeropuerto de Brindisi

Brindisi, Italia

latitud: 40-39N, longitud: 017-57E, altitud: 15 m

Observación

El informe se hizo hace 38 minutos, a las 01:20 UTC
Viento 12 kt del oeste-noroeste
Temperatura 10°C
Humedad 76%
Presión 1003 hPa
Visibilidad 10 km o más

METAR: LIBR 250120Z AUTO 29012KT 9999 BKN084/// 10/06 Q1003

Hora: 02:58 (01:58 UTC)

Pronóstico

El informe se hizo hace 2 horas y 58 minutos, a las 23:00 UTC
Pronóstico válido del 25 a las 00 UTC al 25 a las 24 UTC
Viento 18 kt del suroeste
Visibilidad 10 km o más
Cielo nuboso a una altura de 4000 ft
Evolucionando progresivamente
del 25 a las 00 UTC al 25 a las 03 UTC
Viento 15 kt del noroeste
Evolucionando progresivamente
del 25 a las 12 UTC al 25 a las 14 UTC
Viento 15 kt del sur-suroeste

TAF: LIBR 242300Z 2500/2524 23018KT 9999 BKN040 BECMG 2500/2503 31015KT BECMG 2512/2514 21015KT

Observaciones y pronósticos meteorológicos de más de 4000 aeropuertos (mensajes METAR y TAF).

Los puntos amarillos y rojos representan las estaciones disponibles.

Ponga el ratón en el punto deseado para ver el nombre de la estación.

Haga clic para ver las observaciones y los pronósticos meteorológicos.

Para cambiar el mapa : haga clic en los botones verdes con una cruz de color negro para hacer un zoom, en el botón verde con un guión para alejar o en las flechas verdes para mapas adyacentes.


METAR-TAF: